createdAt,value
2019-03-05T00:01:42.613Z,3.17
2019-03-05T00:04:11.269Z,2.47
2019-03-05T00:06:39.908Z,2.47
2019-03-05T00:09:12.050Z,2.30
2019-03-05T00:11:40.899Z,4.40
2019-03-05T00:14:09.671Z,2.00
2019-03-05T00:16:38.409Z,2.60
2019-03-05T00:19:07.296Z,10.28
2019-03-05T00:21:35.977Z,3.42
2019-03-05T00:24:43.996Z,2.10
2019-03-05T00:27:12.786Z,3.40
2019-03-05T00:30:05.325Z,1.95
2019-03-05T00:32:34.018Z,2.27
2019-03-05T00:35:14.371Z,2.65
2019-03-05T00:37:46.487Z,2.55
2019-03-05T00:40:20.594Z,2.02
2019-03-05T00:43:08.116Z,4.00
2019-03-05T00:48:51.802Z,2.30
2019-03-05T00:51:52.149Z,3.60
2019-03-05T00:54:29.554Z,2.22
2019-03-05T00:57:22.301Z,3.17
2019-03-05T00:59:57.086Z,2.10
2019-03-05T01:02:28.857Z,4.87
2019-03-05T01:05:24.464Z,1.90
2019-03-05T01:07:53.341Z,3.85
2019-03-05T01:10:23.751Z,2.25
2019-03-05T01:12:52.588Z,2.10
2019-03-05T01:15:21.362Z,4.83
2019-03-05T01:17:49.982Z,2.03
2019-03-05T01:20:18.603Z,4.33
2019-03-05T01:22:47.250Z,4.12
2019-03-05T01:25:30.615Z,3.55
2019-03-05T01:27:59.307Z,1.90
2019-03-05T01:30:48.668Z,2.30
2019-03-05T01:33:18.634Z,2.15
2019-03-05T01:35:55.012Z,4.55
2019-03-05T01:38:23.591Z,5.70
2019-03-05T01:40:56.667Z,5.10
2019-03-05T01:43:25.454Z,7.90
2019-03-05T01:45:54.160Z,2.20
2019-03-05T01:48:22.945Z,6.22
2019-03-05T01:50:51.682Z,2.80
2019-03-05T01:53:20.560Z,2.95
2019-03-05T01:55:50.384Z,6.10
2019-03-05T01:58:19.137Z,2.30
2019-03-05T02:00:47.924Z,2.60
2019-03-05T02:03:16.685Z,3.20
2019-03-05T02:05:45.450Z,2.20
2019-03-05T02:08:14.290Z,2.95
2019-03-05T02:10:43.637Z,3.00
2019-03-05T02:13:12.462Z,13.55
2019-03-05T02:15:41.279Z,3.85
2019-03-05T02:18:11.541Z,3.72
2019-03-05T02:20:40.343Z,3.50
2019-03-05T02:23:17.908Z,5.62
2019-03-05T02:25:55.464Z,2.90
2019-03-05T02:28:33.240Z,2.62
2019-03-05T02:31:23.210Z,2.80
2019-03-05T02:34:06.759Z,2.20
2019-03-05T02:36:44.275Z,2.55
2019-03-05T02:39:35.356Z,2.60
2019-03-05T02:42:19.336Z,7.45
2019-03-05T02:44:53.925Z,2.72
2019-03-05T02:47:51.320Z,3.55
2019-03-05T02:50:56.206Z,2.80
2019-03-05T02:53:33.421Z,2.75
2019-03-05T02:56:07.876Z,6.37
2019-03-05T02:58:35.472Z,2.58
2019-03-05T03:01:14.676Z,3.20
2019-03-05T03:03:44.961Z,2.60
2019-03-05T03:06:18.062Z,2.30
2019-03-05T03:08:46.791Z,8.15
2019-03-05T03:14:01.350Z,2.42
2019-03-05T03:16:30.185Z,2.30
2019-03-05T03:18:58.927Z,2.90
2019-03-05T03:21:27.594Z,2.00
2019-03-05T03:23:56.256Z,2.10
2019-03-05T03:26:25.138Z,5.17
2019-03-05T03:28:53.830Z,2.20
2019-03-05T03:31:22.407Z,2.17
2019-03-05T03:33:51.178Z,2.22
2019-03-05T03:36:20.052Z,2.50
2019-03-05T03:38:48.593Z,3.08
2019-03-05T03:41:17.256Z,2.02
2019-03-05T03:46:15.364Z,2.35
2019-03-05T03:48:44.022Z,4.20
2019-03-05T03:51:12.756Z,2.10
2019-03-05T03:53:41.647Z,2.10
2019-03-05T03:56:10.416Z,2.72
2019-03-05T03:58:39.149Z,2.15
2019-03-05T04:01:07.858Z,4.75
2019-03-05T04:03:36.613Z,4.97
2019-03-05T04:06:05.354Z,2.10
2019-03-05T04:08:34.218Z,2.55
2019-03-05T04:11:02.945Z,3.30
2019-03-05T04:13:31.730Z,2.47
2019-03-05T04:16:00.608Z,2.35
2019-03-05T04:18:29.345Z,5.10
2019-03-05T04:20:58.053Z,4.75
2019-03-05T04:23:26.777Z,5.35
2019-03-05T04:26:29.440Z,2.05
2019-03-05T04:28:58.266Z,2.58
2019-03-05T04:31:26.907Z,5.53
2019-03-05T04:33:55.600Z,2.25
2019-03-05T04:36:24.277Z,2.70
2019-03-05T04:38:52.989Z,6.12
2019-03-05T04:41:21.661Z,1.98
2019-03-05T04:43:50.297Z,4.60
2019-03-05T04:46:32.546Z,4.42
2019-03-05T04:49:17.840Z,8.15
2019-03-05T04:51:51.020Z,1.50
2019-03-05T04:54:19.613Z,1.75
2019-03-05T04:56:48.195Z,3.35
2019-03-05T04:59:16.997Z,1.50
2019-03-05T05:01:45.612Z,4.75
2019-03-05T05:04:14.366Z,3.75
2019-03-05T05:06:43.160Z,4.70
2019-03-05T05:09:12.726Z,1.98
2019-03-05T05:11:41.446Z,2.85
2019-03-05T05:14:10.228Z,1.47
2019-03-05T05:17:15.079Z,1.85
2019-03-05T05:19:17.412Z,3.30
2019-03-05T05:22:05.865Z,1.75
2019-03-05T05:24:34.564Z,2.15
2019-03-05T05:27:03.423Z,3.72
2019-03-05T05:29:32.310Z,2.25
2019-03-05T05:32:01.076Z,6.45
2019-03-05T05:34:29.780Z,1.70
2019-03-05T05:36:58.643Z,6.47
2019-03-05T05:40:04.855Z,4.17
2019-03-05T05:42:33.461Z,3.52
2019-03-05T05:45:02.470Z,3.83
2019-03-05T05:47:31.028Z,2.47
2019-03-05T05:49:59.619Z,2.17
2019-03-05T05:52:28.312Z,8.15
2019-03-05T05:54:57.095Z,2.83
2019-03-05T05:57:25.759Z,2.15
2019-03-05T05:59:54.344Z,5.35
2019-03-05T06:02:23.108Z,1.62
2019-03-05T06:04:51.923Z,6.62
2019-03-05T06:07:20.657Z,6.40
2019-03-05T06:09:49.632Z,3.50
2019-03-05T06:12:18.378Z,4.25
2019-03-05T06:14:46.957Z,4.90
2019-03-05T06:17:15.665Z,1.92
2019-03-05T06:19:44.310Z,4.67
2019-03-05T06:22:13.115Z,2.45
2019-03-05T06:24:41.754Z,3.05
2019-03-05T06:27:10.646Z,4.72
2019-03-05T06:29:39.263Z,3.55
2019-03-05T06:32:08.085Z,2.87
2019-03-05T06:37:12.674Z,5.37
2019-03-05T06:39:41.400Z,1.77
2019-03-05T06:42:10.031Z,2.12
2019-03-05T06:44:38.876Z,4.45
2019-03-05T06:47:07.944Z,3.02
2019-03-05T06:49:36.650Z,11.22
2019-03-05T06:52:05.437Z,1.77
2019-03-05T06:54:34.113Z,6.30
2019-03-05T06:57:03.419Z,1.70
2019-03-05T06:59:32.081Z,2.12
2019-03-05T07:02:00.692Z,1.72
2019-03-05T07:04:29.536Z,3.52
2019-03-05T07:06:58.346Z,2.12
2019-03-05T07:09:56.866Z,3.10
2019-03-05T07:12:40.459Z,4.03
2019-03-05T07:15:31.509Z,3.17
2019-03-05T07:18:05.824Z,4.08
2019-03-05T07:20:49.502Z,3.75
2019-03-05T07:23:30.089Z,1.80
2019-03-05T07:25:58.561Z,3.15
2019-03-05T07:28:27.116Z,4.03
2019-03-05T07:30:56.482Z,2.05
2019-03-05T07:33:24.994Z,1.65
2019-03-05T07:35:54.858Z,2.65
2019-03-05T07:38:24.060Z,2.20
2019-03-05T07:40:52.569Z,3.47
2019-03-05T07:43:21.152Z,1.60
2019-03-05T07:45:49.650Z,1.80
2019-03-05T07:48:18.167Z,2.00
2019-03-05T07:50:47.091Z,1.92
2019-03-05T07:53:15.665Z,2.10
2019-03-05T07:55:44.232Z,3.05
2019-03-05T07:58:12.745Z,2.55
2019-03-05T08:00:41.353Z,3.27
2019-03-05T08:03:09.956Z,2.30
2019-03-05T08:05:38.634Z,3.22
2019-03-05T08:08:43.564Z,2.22
2019-03-05T08:11:12.034Z,1.32
2019-03-05T08:13:49.570Z,2.52
2019-03-05T08:16:19.755Z,2.08
2019-03-05T08:18:48.419Z,2.70
2019-03-05T08:21:16.952Z,2.70
2019-03-05T08:23:48.258Z,2.08
2019-03-05T08:26:15.708Z,1.80
2019-03-05T08:28:44.216Z,2.87
2019-03-05T08:31:13.215Z,5.12
2019-03-05T08:33:41.726Z,6.08
2019-03-05T08:36:10.223Z,3.10
2019-03-05T08:38:38.731Z,2.63
2019-03-05T08:41:07.266Z,1.80
2019-03-05T08:43:55.110Z,2.85
2019-03-05T08:46:23.646Z,2.87
2019-03-05T08:48:52.611Z,1.90
2019-03-05T08:51:21.159Z,1.50
2019-03-05T08:53:50.058Z,2.20
2019-03-05T08:56:18.744Z,3.47
2019-03-05T08:58:47.299Z,2.80
2019-03-05T09:01:15.794Z,2.30
2019-03-05T09:03:44.294Z,3.80
2019-03-05T09:06:12.843Z,2.97
2019-03-05T09:08:41.403Z,2.07
2019-03-05T09:11:09.932Z,4.87
2019-03-05T09:13:38.748Z,2.23
2019-03-05T09:16:07.326Z,3.83
2019-03-05T09:18:35.814Z,1.70
2019-03-05T09:21:04.452Z,1.87
2019-03-05T09:23:33.009Z,1.80
2019-03-05T09:26:01.561Z,4.63
2019-03-05T09:28:30.107Z,3.97
2019-03-05T09:30:58.615Z,6.53
2019-03-05T09:33:27.214Z,2.23
2019-03-05T09:35:56.053Z,2.13
2019-03-05T09:38:25.222Z,4.50
2019-03-05T09:40:53.686Z,2.07
2019-03-05T09:43:22.307Z,2.30
2019-03-05T09:45:50.943Z,2.00
2019-03-05T09:48:19.577Z,1.90
2019-03-05T09:50:48.057Z,3.13
2019-03-05T09:53:16.513Z,1.90
2019-03-05T09:55:45.040Z,3.67
2019-03-05T09:58:13.708Z,3.17
2019-03-05T10:00:42.240Z,4.70
2019-03-05T10:03:10.911Z,1.93
2019-03-05T10:05:39.463Z,2.97
2019-03-05T10:08:08.173Z,2.00
2019-03-05T10:10:36.735Z,2.10
2019-03-05T10:13:05.427Z,1.70
2019-03-05T10:15:34.155Z,5.00
2019-03-05T10:18:12.239Z,2.13
2019-03-05T10:20:34.511Z,1.77
2019-03-05T10:23:03.043Z,3.13
2019-03-05T10:25:31.590Z,1.90
2019-03-05T10:28:00.261Z,2.90
2019-03-05T10:30:33.759Z,1.70
2019-03-05T10:33:06.872Z,2.23
2019-03-05T10:35:35.468Z,1.77
2019-03-05T10:38:06.943Z,2.40
2019-03-05T10:40:44.533Z,2.67
2019-03-05T10:43:15.141Z,1.60
2019-03-05T10:45:48.294Z,1.77
2019-03-05T10:48:21.157Z,1.40
2019-03-05T10:50:49.761Z,3.83
2019-03-05T10:53:18.529Z,1.60
2019-03-05T10:55:47.128Z,2.93
2019-03-05T10:58:18.073Z,2.37
2019-03-05T11:00:51.630Z,1.80
2019-03-05T11:03:22.819Z,1.93
2019-03-05T11:05:52.486Z,2.00
2019-03-05T11:08:23.940Z,2.23
2019-03-05T11:10:53.201Z,2.27
2019-03-05T11:13:21.867Z,3.33
2019-03-05T11:15:56.592Z,1.70
2019-03-05T11:18:29.448Z,1.50
2019-03-05T11:20:55.578Z,1.60
2019-03-05T11:23:24.141Z,1.30
2019-03-05T11:25:52.722Z,2.17
2019-03-05T11:28:21.314Z,1.53
2019-03-05T11:30:50.004Z,2.43
2019-03-05T11:33:18.665Z,1.80
2019-03-05T11:35:47.296Z,1.60
2019-03-05T11:38:15.861Z,1.90
2019-03-05T11:40:44.742Z,2.00
2019-03-05T11:43:15.636Z,2.23
2019-03-05T11:45:44.960Z,2.50
2019-03-05T11:48:14.366Z,2.27
2019-03-05T11:50:43.184Z,1.93
2019-03-05T11:53:11.798Z,2.60
2019-03-05T11:55:40.504Z,6.03
2019-03-05T11:58:09.043Z,2.40
2019-03-05T12:00:54.273Z,2.20
2019-03-05T12:03:22.845Z,2.03
2019-03-05T12:05:51.421Z,2.30
2019-03-05T12:08:20.065Z,2.80
2019-03-05T12:10:48.629Z,2.60
2019-03-05T12:13:17.227Z,2.20
2019-03-05T12:15:46.109Z,1.83
2019-03-05T12:18:14.799Z,2.57
2019-03-05T12:20:43.376Z,2.03
2019-03-05T12:23:12.088Z,1.60
2019-03-05T12:25:41.186Z,1.50
2019-03-05T12:28:10.969Z,2.00
2019-03-05T12:30:40.421Z,1.60
2019-03-05T12:33:09.265Z,1.80
2019-03-05T12:35:37.915Z,2.90
2019-03-05T12:38:06.641Z,5.13
2019-03-05T12:40:35.302Z,2.03
2019-03-05T12:43:03.932Z,4.23
2019-03-05T12:45:32.592Z,1.60
2019-03-05T12:48:01.221Z,1.77
2019-03-05T12:50:31.767Z,3.47
2019-03-05T12:53:00.482Z,3.80
2019-03-05T12:55:29.122Z,2.67
2019-03-05T12:57:57.656Z,2.10
2019-03-05T13:00:30.712Z,3.40
2019-03-05T13:02:59.365Z,1.93
2019-03-05T13:05:28.002Z,2.07
2019-03-05T13:07:57.740Z,3.13
2019-03-05T13:10:34.932Z,1.77
2019-03-05T13:12:59.010Z,1.50
2019-03-05T13:15:35.353Z,1.83
2019-03-05T13:18:04.124Z,2.33
2019-03-05T13:20:32.651Z,1.40
2019-03-05T13:23:08.474Z,2.90
2019-03-05T13:25:31.467Z,1.70
2019-03-05T13:28:02.050Z,4.50
2019-03-05T13:30:31.864Z,1.90
2019-03-05T13:33:00.885Z,1.87
2019-03-05T13:35:31.761Z,2.27
2019-03-05T13:38:07.456Z,1.63
2019-03-05T13:40:38.236Z,2.00
2019-03-05T13:43:06.822Z,1.60
2019-03-05T13:45:35.646Z,1.70
2019-03-05T13:48:20.547Z,1.60
2019-03-05T13:51:04.166Z,1.60
2019-03-05T13:53:47.785Z,1.97
2019-03-05T13:56:41.931Z,2.13
2019-03-05T13:59:16.546Z,1.43
2019-03-05T14:01:45.230Z,2.30
2019-03-05T14:04:28.845Z,2.03
2019-03-05T14:07:12.521Z,1.60
2019-03-05T14:09:40.020Z,1.60
2019-03-05T14:12:08.602Z,4.73
2019-03-05T14:14:37.226Z,1.90
2019-03-05T14:17:25.766Z,2.30
2019-03-05T14:19:54.390Z,3.93
2019-03-05T14:22:23.074Z,2.50
2019-03-05T14:25:01.610Z,2.03
2019-03-05T14:27:22.056Z,1.30
2019-03-05T14:29:50.859Z,1.90
2019-03-05T14:32:19.525Z,3.27
2019-03-05T14:34:53.978Z,1.53
2019-03-05T14:37:22.900Z,1.87
2019-03-05T14:39:51.548Z,2.03
2019-03-05T14:42:20.091Z,2.13
2019-03-05T14:44:48.768Z,1.63
2019-03-05T14:47:17.373Z,1.40
2019-03-05T14:49:45.895Z,2.90
2019-03-05T14:52:14.467Z,2.20
2019-03-05T14:54:43.101Z,2.73
2019-03-05T14:57:11.666Z,7.50
2019-03-05T14:59:40.269Z,2.23
2019-03-05T15:02:08.956Z,2.90
2019-03-05T15:04:37.609Z,2.60
2019-03-05T15:07:06.257Z,1.40
2019-03-05T15:09:34.829Z,1.20
2019-03-05T15:12:04.330Z,2.27
2019-03-05T15:14:33.332Z,1.60
2019-03-05T15:17:01.850Z,3.93
2019-03-05T15:19:30.424Z,1.30
2019-03-05T15:21:58.977Z,3.80
2019-03-05T15:24:27.519Z,1.73
2019-03-05T15:26:56.098Z,3.07
2019-03-05T15:29:24.697Z,1.60
2019-03-05T15:31:53.228Z,3.90
2019-03-05T15:34:21.871Z,1.67
2019-03-05T15:36:52.021Z,2.23
2019-03-05T15:39:20.663Z,3.83
2019-03-05T15:41:49.243Z,3.47
2019-03-05T15:44:17.833Z,5.77
2019-03-05T15:46:46.360Z,4.30
2019-03-05T15:49:14.850Z,2.87
2019-03-05T15:51:43.503Z,2.40
2019-03-05T15:54:12.070Z,3.37
2019-03-05T15:56:40.647Z,2.87
2019-03-05T15:59:09.136Z,1.50
2019-03-05T16:01:37.771Z,1.67
2019-03-05T16:04:06.273Z,1.50
2019-03-05T16:06:35.294Z,1.60
2019-03-05T16:09:05.634Z,4.57
2019-03-05T16:11:35.162Z,3.70
2019-03-05T16:14:03.834Z,2.27
2019-03-05T16:16:32.327Z,1.73
2019-03-05T16:19:00.849Z,2.90
2019-03-05T16:21:29.316Z,2.55
2019-03-05T16:24:01.736Z,5.90
2019-03-05T16:26:28.257Z,3.03
2019-03-05T16:28:56.847Z,3.67
2019-03-05T16:31:30.007Z,1.60
2019-03-05T16:34:09.511Z,1.60
2019-03-05T16:36:44.102Z,2.27
2019-03-05T16:39:27.252Z,1.63
2019-03-05T16:42:01.301Z,3.23
2019-03-05T16:44:40.696Z,1.40
2019-03-05T16:47:26.831Z,2.07
2019-03-05T16:50:02.662Z,3.52
2019-03-05T16:52:44.553Z,2.13
2019-03-05T16:55:26.596Z,2.20
2019-03-05T16:58:14.635Z,5.63
2019-03-05T17:00:51.343Z,5.90
2019-03-05T17:03:33.890Z,2.77
2019-03-05T17:06:06.974Z,4.20
2019-03-05T17:08:43.050Z,5.80
2019-03-05T17:11:13.253Z,5.67
2019-03-05T17:13:41.811Z,2.30
2019-03-05T17:16:10.374Z,3.13
2019-03-05T17:18:39.156Z,4.40
2019-03-05T17:21:07.790Z,2.10
2019-03-05T17:23:36.395Z,2.07
2019-03-05T17:26:05.401Z,1.57
2019-03-05T17:28:33.984Z,2.10
2019-03-05T17:31:03.288Z,3.17
2019-03-05T17:33:31.850Z,1.70
2019-03-05T17:36:00.402Z,1.73
2019-03-05T17:38:28.970Z,3.43
2019-03-05T17:40:57.522Z,1.93
2019-03-05T17:43:26.229Z,1.43
2019-03-05T17:45:54.860Z,3.40
2019-03-05T17:48:23.406Z,5.00
2019-03-05T17:50:52.016Z,3.10
2019-03-05T17:53:20.505Z,3.67
2019-03-05T17:55:49.039Z,2.00
2019-03-05T17:58:17.568Z,2.63
2019-03-05T18:00:47.889Z,4.60
2019-03-05T18:03:16.404Z,5.43
2019-03-05T18:05:44.970Z,4.23
2019-03-05T18:08:13.574Z,4.57
2019-03-05T18:10:42.185Z,2.90
2019-03-05T18:13:10.845Z,1.93
2019-03-05T18:15:39.454Z,10.83
2019-03-05T18:18:08.113Z,1.90
2019-03-05T18:20:36.673Z,3.73
2019-03-05T18:23:05.284Z,4.87
2019-03-05T18:25:33.927Z,2.10
2019-03-05T18:28:02.541Z,1.70
2019-03-05T18:30:32.015Z,7.23
2019-03-05T18:33:00.575Z,1.90
2019-03-05T18:35:29.186Z,2.20
2019-03-05T18:37:57.842Z,2.43
2019-03-05T18:40:26.492Z,2.13
2019-03-05T18:42:55.125Z,1.90
2019-03-05T18:45:34.693Z,3.00
2019-03-05T18:48:03.468Z,2.33
2019-03-05T18:50:31.998Z,3.57
2019-03-05T18:53:01.877Z,4.60
2019-03-05T18:55:30.790Z,3.43
2019-03-05T18:57:59.401Z,3.90
2019-03-05T19:00:29.595Z,4.30
2019-03-05T19:03:03.141Z,2.40
2019-03-05T19:05:31.745Z,6.47
2019-03-05T19:08:00.305Z,3.83
2019-03-05T19:10:28.889Z,7.50
2019-03-05T19:12:57.453Z,10.33
2019-03-05T19:15:28.287Z,2.80
2019-03-05T19:17:56.990Z,3.40
2019-03-05T19:20:27.007Z,3.30
2019-03-05T19:22:55.739Z,9.53
2019-03-05T19:25:29.096Z,13.62
2019-03-05T19:27:57.728Z,4.13
2019-03-05T19:30:34.916Z,3.58
2019-03-05T19:33:03.520Z,5.53
2019-03-05T19:35:32.185Z,14.55
2019-03-05T19:38:00.853Z,9.08
2019-03-05T19:40:32.259Z,5.05
2019-03-05T19:43:00.804Z,8.90
2019-03-05T19:45:29.536Z,12.45
2019-03-05T19:47:58.110Z,12.25
2019-03-05T19:50:26.675Z,5.45
2019-03-05T19:52:55.379Z,5.85
2019-03-05T19:55:25.722Z,3.33
2019-03-05T19:57:56.046Z,9.15
2019-03-05T20:00:30.189Z,4.05
2019-03-05T20:02:58.746Z,10.95
2019-03-05T20:05:27.306Z,5.37
2019-03-05T20:07:56.058Z,7.50
2019-03-05T20:10:30.236Z,7.23
2019-03-05T20:12:58.861Z,6.45
2019-03-05T20:15:27.807Z,4.17
2019-03-05T20:17:59.082Z,6.40
2019-03-05T20:20:26.718Z,6.90
2019-03-05T20:22:55.358Z,6.03
2019-03-05T20:25:30.809Z,5.30
2019-03-05T20:27:59.341Z,6.97
2019-03-05T20:30:27.913Z,9.95
2019-03-05T20:32:56.541Z,4.60
2019-03-05T20:35:25.240Z,8.70
2019-03-05T20:38:08.337Z,9.45
2019-03-05T20:40:36.980Z,10.53
2019-03-05T20:43:05.911Z,9.20
2019-03-05T20:45:43.490Z,5.40
2019-03-05T20:48:12.168Z,13.20
2019-03-05T20:50:40.822Z,8.03
2019-03-05T20:53:09.574Z,15.03
2019-03-05T20:55:41.236Z,5.42
2019-03-05T20:58:09.814Z,7.47
2019-03-05T21:00:41.566Z,10.70
2019-03-05T21:03:13.119Z,10.03
2019-03-05T21:05:46.583Z,5.80
2019-03-05T21:08:16.909Z,8.70
2019-03-05T21:10:45.410Z,10.43
2019-03-05T21:13:14.212Z,6.50
2019-03-05T21:15:42.907Z,8.15
2019-03-05T21:18:13.781Z,9.23
2019-03-05T21:20:42.571Z,6.90
2019-03-05T21:23:13.207Z,7.37
2019-03-05T21:25:42.059Z,9.45
2019-03-05T21:28:11.174Z,10.78
2019-03-05T21:30:40.059Z,12.07
2019-03-05T21:33:10.353Z,8.35
2019-03-05T21:35:39.388Z,13.18
2019-03-05T21:38:09.783Z,11.20
2019-03-05T21:40:39.841Z,10.43
2019-03-05T21:43:08.487Z,7.10
2019-03-05T21:45:40.325Z,11.20
2019-03-05T21:48:10.810Z,7.28
2019-03-05T21:50:40.714Z,8.13
2019-03-05T21:53:09.431Z,7.58
2019-03-05T21:55:38.224Z,7.40
2019-03-05T21:58:09.043Z,7.13
2019-03-05T22:00:43.064Z,11.75
2019-03-05T22:03:12.298Z,12.18
2019-03-05T22:05:40.987Z,15.68
2019-03-05T22:08:10.953Z,10.68
2019-03-05T22:10:43.489Z,16.87
2019-03-05T22:13:12.742Z,13.40
2019-03-05T22:15:42.987Z,16.37
2019-03-05T22:18:12.650Z,9.85
2019-03-05T22:20:43.381Z,12.03
2019-03-05T22:23:12.757Z,9.53
2019-03-05T22:25:42.468Z,13.85
2019-03-05T22:28:11.716Z,11.03
2019-03-05T22:30:42.518Z,13.55
2019-03-05T22:33:11.222Z,12.73
2019-03-05T22:35:39.984Z,13.18
2019-03-05T22:38:08.556Z,16.55
2019-03-05T22:40:38.110Z,17.07
2019-03-05T22:43:07.361Z,16.15
2019-03-05T22:45:37.077Z,14.83
2019-03-05T22:48:05.816Z,17.07
2019-03-05T22:50:34.366Z,14.70
2019-03-05T22:53:03.110Z,23.10
2019-03-05T22:55:32.122Z,16.10
2019-03-05T22:58:00.731Z,19.30
2019-03-05T23:00:54.876Z,19.87
2019-03-05T23:03:29.124Z,23.85
2019-03-05T23:06:00.710Z,21.45
2019-03-05T23:08:32.303Z,19.52
2019-03-05T23:11:02.168Z,23.10
2019-03-05T23:13:32.819Z,20.17
2019-03-05T23:16:01.695Z,16.45
2019-03-05T23:18:32.523Z,21.12
2019-03-05T23:21:02.290Z,19.80
2019-03-05T23:23:35.826Z,18.10
2019-03-05T23:26:07.330Z,25.60
2019-03-05T23:28:40.469Z,21.93
2019-03-05T23:31:18.564Z,22.48
2019-03-05T23:33:49.617Z,22.20
2019-03-05T23:36:21.562Z,18.40
2019-03-05T23:38:51.390Z,24.65
2019-03-05T23:41:29.847Z,19.65
2019-03-05T23:43:59.935Z,28.40
2019-03-05T23:46:30.524Z,22.50
2019-03-05T23:49:01.199Z,19.00
2019-03-05T23:51:31.721Z,18.42
2019-03-05T23:54:03.329Z,22.60
2019-03-05T23:56:36.150Z,18.80
2019-03-05T23:59:06.592Z,25.35
